Terminal Aerodrome Forecast
Issued by NWS

Home | Current Version | Previous Version | Text Only | Print | Product List | Glossary On
Versions: 1 2 3 4 5 6 7 8 9 10 11 12 13 14 15 16
000
FTUS46 KSEW 181122
TAFBLI
TAF
KBLI 181122Z 1812/1912 35004KT P6SM SCT025 OVC045
     FM181500 12012KT P6SM -RA BKN025 OVC040
     FM182100 14020G30KT 4SM -RA BR OVC015
     FM190300 16012KT 6SM -RA BR BKN025 OVC040
     FM190500 17010KT P6SM -RA SCT030 OVC060=

USA.gov is the U.S. government's official web portal to all federal, state and local government web resources and services.